Time;durP1;ratioP1;P1;durP2;ratioP2;P2;SDS_P1;SDS_P2;PMS_P1;PMS_P2;Temp;Humidity;BMP_temperature;BMP_pressure;BME280_temperature;BME280_humidity;BME280_pressure;Samples;Min_cycle;Max_cycle;Signal;HPM_P1;HPM_P2
2022/11/22 00:00:49;;;;;;;;;1.00;1.00;;;;;9.70;67.06;99165.53;4865616;29;45317;-66
2022/11/22 00:03:14;;;;;;;;;3.75;1.00;;;;;9.57;67.16;99149.31;4864896;29;45342;-66
2022/11/22 00:05:39;;;;;;;;;1.50;1.50;;;;;9.62;67.10;99153.47;4865828;29;45677;-65
2022/11/22 00:08:05;;;;;;;;;2.00;1.50;;;;;9.59;67.19;99153.63;4863704;29;46301;-66
2022/11/22 00:10:31;;;;;;;;;2.75;2.00;;;;;9.56;67.70;99163.59;4849284;29;45514;-66
2022/11/22 00:12:56;;;;;;;;;2.50;1.00;;;;;9.52;67.57;99156.69;4865063;29;45663;-66
2022/11/22 00:15:22;;;;;;;;;1.25;0.25;;;;;9.51;67.37;99168.31;4865804;29;45307;-66
2022/11/22 00:17:47;;;;;;;;;2.00;1.75;;;;;9.50;67.38;99167.44;4865788;29;46281;-66
2022/11/22 00:20:13;;;;;;;;;3.00;2.50;;;;;9.45;66.88;99162.38;4865784;29;45459;-66
2022/11/22 00:22:38;;;;;;;;;1.75;1.75;;;;;9.41;67.51;99174.13;4860191;29;45317;-66
2022/11/22 00:25:05;;;;;;;;;2.00;2.00;;;;;9.32;67.48;99150.66;4863968;29;45706;-66
2022/11/22 00:27:30;;;;;;;;;4.50;2.75;;;;;9.33;67.68;99156.81;4865577;29;45510;-66
2022/11/22 00:29:56;;;;;;;;;3.00;1.50;;;;;9.35;67.92;99158.44;4865299;29;45328;-66
2022/11/22 00:32:21;;;;;;;;;3.00;3.00;;;;;9.37;67.60;99151.25;4865840;29;45492;-66
2022/11/22 00:34:46;;;;;;;;;2.00;1.75;;;;;9.34;67.42;99154.09;4862148;29;45743;-66
2022/11/22 00:37:11;;;;;;;;;3.00;1.50;;;;;9.35;67.94;99152.28;4864841;29;45391;-66
2022/11/22 00:39:37;;;;;;;;;2.75;2.75;;;;;9.34;67.86;99153.19;4864033;29;46522;-66
2022/11/22 00:42:02;;;;;;;;;1.50;1.25;;;;;9.27;67.74;99142.91;4865672;29;45268;-66
2022/11/22 00:44:28;;;;;;;;;2.00;1.00;;;;;9.28;67.36;99144.59;4865198;29;45398;-66
2022/11/22 00:46:53;;;;;;;;;1.00;1.00;;;;;9.32;67.66;99147.09;4864521;29;45591;-66
2022/11/22 00:49:18;;;;;;;;;2.75;1.50;;;;;9.24;67.89;99148.38;4864472;29;45361;-66
2022/11/22 00:51:43;;;;;;;;;2.00;1.25;;;;;9.26;67.46;99153.63;4864982;29;51128;-66
2022/11/22 00:54:09;;;;;;;;;3.00;1.50;;;;;9.27;67.78;99150.88;4864916;29;45710;-66
2022/11/22 00:56:34;;;;;;;;;2.00;2.00;;;;;9.26;67.94;99156.28;4865404;29;45432;-66
2022/11/22 00:59:00;;;;;;;;;2.75;1.00;;;;;9.26;67.51;99154.47;4864782;29;45293;-66
2022/11/22 01:01:25;;;;;;;;;1.00;1.00;;;;;9.26;67.80;99157.13;4864780;29;45346;-66
2022/11/22 01:03:50;;;;;;;;;1.50;1.50;;;;;9.28;67.40;99163.25;4865218;29;45447;-66
2022/11/22 01:06:16;;;;;;;;;1.50;1.50;;;;;9.27;67.80;99164.19;4864535;29;53483;-66
2022/11/22 01:08:41;;;;;;;;;3.50;2.00;;;;;9.29;67.70;99166.78;4862999;29;45516;-66
2022/11/22 01:11:07;;;;;;;;;1.25;1.00;;;;;9.25;67.83;99165.19;4864641;29;45607;-66
2022/11/22 01:13:32;;;;;;;;;1.25;1.25;;;;;9.24;67.26;99160.84;4864685;29;45377;-66
2022/11/22 01:16:05;;;;;;;;;2.00;1.00;;;;;9.26;67.56;99166.94;4864630;29;46627;-66
2022/11/22 01:18:31;;;;;;;;;1.25;1.00;;;;;9.25;67.63;99155.44;4864392;29;46012;-66
2022/11/22 01:20:57;;;;;;;;;3.50;1.00;;;;;9.22;67.46;99155.59;4864927;29;45496;-66
2022/11/22 01:23:22;;;;;;;;;1.25;1.00;;;;;9.23;67.36;99156.44;4859077;29;45397;-66
2022/11/22 01:25:48;;;;;;;;;2.25;1.00;;;;;9.23;67.45;99157.28;4864297;29;46348;-66
2022/11/22 01:28:13;;;;;;;;;0.50;0.50;;;;;9.20;67.77;99146.81;4864758;29;45444;-66
2022/11/22 01:30:40;;;;;;;;;2.50;1.75;;;;;9.23;67.71;99159.97;4864190;29;45387;-66
2022/11/22 01:33:05;;;;;;;;;2.25;1.75;;;;;9.23;67.80;99157.28;4863567;29;45322;-66
2022/11/22 01:35:30;;;;;;;;;3.25;1.00;;;;;9.21;67.47;99148.53;4860174;29;48297;-66
2022/11/22 01:37:56;;;;;;;;;2.50;2.50;;;;;9.21;67.20;99142.34;4862190;29;54892;-66
2022/11/22 01:40:21;;;;;;;;;2.25;1.25;;;;;9.15;67.70;99138.19;4864051;29;45516;-65
2022/11/22 01:42:58;;;;;;;;;1.00;1.00;;;;;9.11;67.62;99135.78;4864120;29;45286;-66
2022/11/22 01:45:30;;;;;;;;;1.75;1.00;;;;;9.16;67.72;99147.06;4864399;29;46006;-66
2022/11/22 01:47:58;;;;;;;;;0.50;0.50;;;;;9.14;67.41;99147.13;4864778;29;45455;-66
2022/11/22 01:50:24;;;;;;;;;3.75;1.50;;;;;9.10;67.91;99150.88;4864707;29;45451;-66
2022/11/22 01:52:49;;;;;;;;;4.00;1.00;;;;;9.08;67.97;99147.44;4864547;29;45349;-66
2022/11/22 01:55:15;;;;;;;;;1.50;1.50;;;;;9.08;67.57;99150.13;4862172;29;46060;-66
2022/11/22 01:57:43;;;;;;;;;1.00;1.00;;;;;9.09;67.98;99150.03;4864658;29;45333;-66
2022/11/22 02:00:13;;;;;;;;;4.00;2.00;;;;;9.08;68.02;99153.63;4864327;29;45517;-66
2022/11/22 02:02:39;;;;;;;;;1.75;1.00;;;;;9.07;68.12;99159.03;4863610;29;45521;-66
2022/11/22 02:05:11;;;;;;;;;1.00;1.00;;;;;9.01;68.21;99149.56;4864290;29;45298;-66
2022/11/22 02:08:21;;;;;;;;;0.50;0.50;;;;;9.02;68.41;99137.09;4862677;29;45249;-66
2022/11/22 02:10:50;;;;;;;;;4.00;1.25;;;;;9.04;68.13;99143.25;4819468;29;45601;-66
2022/11/22 02:13:19;;;;;;;;;2.00;1.00;;;;;9.09;68.37;99149.19;4862651;29;45413;-66
2022/11/22 02:15:44;;;;;;;;;1.00;1.00;;;;;9.07;68.36;99141.28;4864178;29;46642;-66
2022/11/22 02:18:09;;;;;;;;;0.25;0.25;;;;;8.97;68.05;99115.19;4863312;29;47893;-66
2022/11/22 02:20:37;;;;;;;;;0.75;0.75;;;;;9.08;68.35;99119.03;4864061;29;45519;-66
2022/11/22 02:23:16;;;;;;;;;0.75;0.75;;;;;9.03;68.04;99122.88;4858560;29;45751;-66
2022/11/22 02:25:56;;;;;;;;;4.00;1.00;;;;;9.07;68.42;99113.78;4856036;29;46167;-66
2022/11/22 02:28:22;;;;;;;;;2.50;0.25;;;;;9.05;68.18;99111.22;4867404;29;45618;-66
2022/11/22 02:30:47;;;;;;;;;1.00;0.00;;;;;9.05;68.26;99116.53;4867011;29;45439;-66
2022/11/22 02:33:12;;;;;;;;;1.00;0.00;;;;;9.01;68.37;99109.66;4855163;29;45402;-66
2022/11/22 02:35:39;;;;;;;;;1.00;1.00;;;;;9.06;68.32;99102.28;4866268;29;46572;-66
2022/11/22 02:38:11;;;;;;;;;1.00;0.00;;;;;9.05;67.84;99107.69;4866432;29;45479;-66
2022/11/22 02:40:43;;;;;;;;;2.00;1.00;;;;;9.03;67.90;99101.59;4866242;29;45481;-66
2022/11/22 02:43:22;;;;;;;;;1.00;1.00;;;;;9.07;68.29;99117.31;4866781;29;45329;-66
2022/11/22 02:45:47;;;;;;;;;1.50;1.00;;;;;9.05;67.98;99107.69;4866916;29;45444;-66
2022/11/22 02:48:16;;;;;;;;;1.50;0.50;;;;;9.03;68.45;99107.75;4867134;29;45468;-66
2022/11/22 02:50:42;;;;;;;;;1.00;1.00;;;;;9.04;68.39;99108.63;4850476;29;45429;-66
2022/11/22 02:53:09;;;;;;;;;1.25;1.00;;;;;9.04;68.37;99104.16;4865952;29;45491;-66
2022/11/22 02:55:34;;;;;;;;;3.00;0.00;;;;;9.04;68.13;99093.53;4866138;29;45715;-66
2022/11/22 02:58:00;;;;;;;;;0.25;0.00;;;;;9.05;68.50;99078.41;4866698;29;45419;-66
2022/11/22 03:00:26;;;;;;;;;1.25;0.00;;;;;9.00;68.06;99081.28;4866796;29;45503;-66
2022/11/22 03:02:51;;;;;;;;;2.50;0.00;;;;;9.01;68.46;99072.38;4866024;29;45437;-66
2022/11/22 03:05:16;;;;;;;;;0.75;0.00;;;;;9.03;68.15;99075.81;4865564;29;45503;-66
2022/11/22 03:07:42;;;;;;;;;1.25;1.00;;;;;9.03;68.62;99082.94;4865021;29;45465;-66
2022/11/22 03:10:07;;;;;;;;;1.00;0.75;;;;;9.02;68.12;99078.56;4865214;29;46618;-66
2022/11/22 03:12:33;;;;;;;;;0.00;0.00;;;;;8.96;68.49;99069.09;4866713;29;45462;-66
2022/11/22 03:14:58;;;;;;;;;0.75;0.75;;;;;9.04;68.76;99079.38;4866551;29;45325;-66
2022/11/22 03:17:23;;;;;;;;;1.00;0.00;;;;;9.00;68.33;99061.81;4866471;29;49774;-66
2022/11/22 03:19:49;;;;;;;;;1.00;0.00;;;;;8.99;68.68;99058.31;4866063;29;45404;-66
2022/11/22 03:22:14;;;;;;;;;1.50;1.50;;;;;8.95;68.81;99061.19;4861043;29;45518;-66
2022/11/22 03:24:40;;;;;;;;;2.00;1.00;;;;;8.98;68.64;99066.38;4865825;29;45593;-66
2022/11/22 03:27:05;;;;;;;;;3.25;1.00;;;;;8.94;68.80;99060.34;4865508;29;45430;-66
2022/11/22 03:29:30;;;;;;;;;0.00;0.00;;;;;8.96;68.63;99070.91;4866487;29;45592;-66
2022/11/22 03:31:55;;;;;;;;;0.00;0.00;;;;;8.94;69.05;99072.78;4866748;29;45545;-66
2022/11/22 03:34:21;;;;;;;;;3.00;0.00;;;;;8.94;69.15;99067.44;4865196;29;52743;-66
2022/11/22 03:36:46;;;;;;;;;1.00;1.00;;;;;8.90;69.39;99064.09;4864891;29;45391;-66
2022/11/22 03:39:11;;;;;;;;;0.25;0.00;;;;;8.89;69.32;99065.06;4866384;29;45320;-66
2022/11/22 03:41:37;;;;;;;;;0.00;0.00;;;;;8.94;69.03;99078.09;4866506;29;45334;-66
2022/11/22 03:44:03;;;;;;;;;1.00;1.00;;;;;8.93;68.93;99079.06;4865280;29;46177;-66
2022/11/22 03:46:28;;;;;;;;;0.00;0.00;;;;;8.86;69.46;99068.72;4866536;29;45475;-66
2022/11/22 03:48:54;;;;;;;;;1.50;1.00;;;;;8.92;68.91;99069.34;4865785;29;45401;-66
2022/11/22 03:51:19;;;;;;;;;2.00;0.25;;;;;8.92;69.34;99072.00;4866062;29;52146;-66
2022/11/22 03:53:44;;;;;;;;;3.00;0.50;;;;;8.88;69.56;99061.50;4865968;29;45301;-66
2022/11/22 03:56:10;;;;;;;;;2.75;1.00;;;;;8.89;69.30;99057.06;4865693;29;45245;-66
2022/11/22 03:58:35;;;;;;;;;2.25;0.75;;;;;8.94;69.71;99068.34;4865997;29;45305;-66
2022/11/22 04:01:00;;;;;;;;;1.00;1.00;;;;;9.00;69.71;99075.13;4865422;29;45558;-66
2022/11/22 04:03:26;;;;;;;;;0.50;0.00;;;;;9.03;69.47;99074.97;4849153;29;48318;-66
2022/11/22 04:05:51;;;;;;;;;2.00;1.00;;;;;9.03;69.42;99074.97;4864303;29;45394;-66
2022/11/22 04:08:17;;;;;;;;;0.00;0.00;;;;;8.98;69.78;99061.03;4865883;29;45325;-66
2022/11/22 04:10:42;;;;;;;;;0.00;0.00;;;;;9.04;69.76;99064.25;4866187;29;45456;-66
2022/11/22 04:13:07;;;;;;;;;1.00;1.00;;;;;9.04;69.55;99061.56;4864927;29;46386;-66
2022/11/22 04:15:33;;;;;;;;;1.00;1.00;;;;;8.95;69.97;99047.88;4865916;29;45448;-66
2022/11/22 04:17:58;;;;;;;;;1.00;1.00;;;;;9.06;69.81;99061.50;4866040;29;45456;-66
2022/11/22 04:23:16;;;;;;;;;2.00;1.00;;;;;9.12;69.66;99071.84;4859405;29;45297;-66
2022/11/22 04:25:44;;;;;;;;;1.00;1.00;;;;;9.13;69.68;99064.69;4848925;29;45619;-66
2022/11/22 04:28:10;;;;;;;;;0.00;0.00;;;;;9.13;69.61;99054.91;4865775;29;45409;-66
2022/11/22 04:33:21;;;;;;;;;1.00;1.00;;;;;9.19;69.73;99046.59;4854234;29;45487;-66
2022/11/22 04:35:47;;;;;;;;;0.00;0.00;;;;;9.17;69.91;99043.16;4863648;29;45415;-66
2022/11/22 04:38:13;;;;;;;;;0.00;0.00;;;;;9.19;70.11;99037.75;4865543;29;45420;-66
2022/11/22 04:40:38;;;;;;;;;0.75;0.75;;;;;9.19;69.92;99033.28;4863272;29;45382;-66
2022/11/22 04:45:49;;;;;;;;;1.00;0.00;;;;;9.12;69.66;99020.38;4865068;29;45349;-66
2022/11/22 04:48:15;;;;;;;;;2.75;0.00;;;;;9.16;69.77;99020.13;4864799;29;45271;-65
2022/11/22 04:53:26;;;;;;;;;2.25;1.00;;;;;9.16;70.18;99030.78;4864930;29;45903;-66
2022/11/22 04:55:52;;;;;;;;;2.00;1.50;;;;;9.22;70.04;99034.91;4847636;29;45377;-66
2022/11/22 04:58:17;;;;;;;;;1.75;1.00;;;;;9.22;70.07;99041.09;4865546;29;45387;-66
2022/11/22 05:00:43;;;;;;;;;1.00;1.00;;;;;9.21;69.88;99035.88;4862890;29;45455;-66
2022/11/22 05:03:09;;;;;;;;;2.75;0.25;;;;;9.23;70.35;99032.16;4865155;29;45391;-66
2022/11/22 05:05:36;;;;;;;;;1.75;0.00;;;;;9.25;70.10;99032.09;4864124;29;45659;-66
2022/11/22 05:08:03;;;;;;;;;2.50;0.00;;;;;9.30;69.69;99034.50;4865259;29;45441;-66
2022/11/22 05:10:55;;;;;;;;;1.00;1.00;;;;;9.30;69.98;99042.50;4852809;29;45322;-66
2022/11/22 05:13:13;;;;;;;;;2.00;0.50;;;;;9.30;69.80;99034.50;4855355;29;45503;-66
2022/11/22 05:15:39;;;;;;;;;2.00;0.00;;;;;9.31;69.98;99036.22;4864949;29;45278;-66
2022/11/22 05:18:04;;;;;;;;;2.50;0.00;;;;;9.31;69.73;99038.91;4863737;29;45335;-66
2022/11/22 05:20:29;;;;;;;;;0.75;0.00;;;;;9.29;69.77;99031.00;4865127;29;45403;-66
2022/11/22 05:25:38;;;;;;;;;0.00;0.00;;;;;9.32;69.60;99032.59;4865053;29;45504;-66
2022/11/22 05:28:04;;;;;;;;;0.00;0.00;;;;;9.28;70.33;99013.28;4863699;29;52349;-66
2022/11/22 05:30:29;;;;;;;;;0.00;0.00;;;;;9.33;70.44;99023.69;4847930;29;45552;-66
2022/11/22 05:32:54;;;;;;;;;0.00;0.00;;;;;9.36;69.93;99026.19;4864313;29;57272;-66
2022/11/22 05:35:20;;;;;;;;;0.50;0.00;;;;;9.34;70.03;99039.59;4861080;29;53682;-66
2022/11/22 05:37:45;;;;;;;;;0.25;0.25;;;;;9.37;70.55;99039.41;4847996;29;45319;-66
2022/11/22 05:40:11;;;;;;;;;0.00;0.00;;;;;9.37;70.38;99033.22;4863719;29;56901;-65
2022/11/22 05:42:36;;;;;;;;;0.00;0.00;;;;;9.36;70.51;99039.50;4864466;29;46540;-66
2022/11/22 05:45:02;;;;;;;;;1.50;0.00;;;;;9.35;70.75;99030.63;4863292;29;45499;-66
2022/11/22 05:47:27;;;;;;;;;1.00;1.00;;;;;9.40;71.04;99031.22;4861321;29;45483;-66
2022/11/22 05:49:52;;;;;;;;;0.50;0.00;;;;;9.42;71.58;99029.38;4864233;29;60736;-66
2022/11/22 05:52:18;;;;;;;;;0.00;0.00;;;;;9.37;71.41;99038.53;4864348;29;45528;-66
2022/11/22 05:54:43;;;;;;;;;1.00;1.00;;;;;9.26;71.59;99032.00;4864825;29;45377;-66
2022/11/22 05:57:08;;;;;;;;;0.00;0.00;;;;;9.35;71.49;99051.09;4863918;29;45473;-66
2022/11/22 05:59:34;;;;;;;;;2.50;1.50;;;;;9.35;71.51;99048.41;4864479;29;45449;-66
2022/11/22 06:01:59;;;;;;;;;1.75;1.00;;;;;9.31;71.83;99047.72;4866920;29;48417;-66
2022/11/22 06:04:24;;;;;;;;;0.50;0.00;;;;;9.27;71.53;99032.84;4867138;29;45417;-66
2022/11/22 06:06:49;;;;;;;;;0.75;0.00;;;;;9.39;71.82;99047.31;4848823;29;45420;-66
2022/11/22 06:09:15;;;;;;;;;1.00;0.00;;;;;9.40;72.14;99041.88;4865830;29;45459;-66
2022/11/22 06:11:40;;;;;;;;;0.00;0.00;;;;;9.41;71.86;99034.78;4867399;29;52959;-66
2022/11/22 06:14:08;;;;;;;;;0.00;0.00;;;;;9.38;71.84;99026.97;4867505;29;45653;-66
2022/11/22 06:16:33;;;;;;;;;0.00;0.00;;;;;9.41;72.15;99035.63;4867702;29;45372;-66
2022/11/22 06:18:58;;;;;;;;;1.00;1.00;;;;;9.43;72.24;99036.41;4866134;29;45629;-66
2022/11/22 06:21:25;;;;;;;;;1.75;1.50;;;;;9.45;72.08;99036.31;4867044;29;46176;-66
2022/11/22 06:23:54;;;;;;;;;0.00;0.00;;;;;9.48;71.94;99030.81;4867535;29;45594;-66
2022/11/22 06:26:21;;;;;;;;;0.75;0.75;;;;;9.42;72.10;99029.38;4867490;29;45405;-66
2022/11/22 06:28:48;;;;;;;;;3.00;1.25;;;;;9.49;71.86;99040.53;4865479;29;45553;-66
2022/11/22 06:31:19;;;;;;;;;1.00;1.00;;;;;9.48;72.42;99041.47;4865622;29;46395;-66
2022/11/22 06:33:45;;;;;;;;;1.50;1.00;;;;;9.48;72.13;99044.16;4866374;29;45675;-66
2022/11/22 06:36:13;;;;;;;;;0.50;0.00;;;;;9.49;72.48;99039.66;4854842;29;45502;-66
2022/11/22 06:38:40;;;;;;;;;0.25;0.25;;;;;9.51;72.06;99046.63;4865612;29;45355;-66
2022/11/22 06:41:08;;;;;;;;;0.00;0.00;;;;;9.52;72.53;99048.38;4867322;29;45345;-66
2022/11/22 06:43:35;;;;;;;;;0.00;0.00;;;;;9.51;71.95;99043.13;4865728;29;45645;-66
2022/11/22 06:46:02;;;;;;;;;0.00;0.00;;;;;9.50;72.39;99046.72;4865841;29;45648;-66
2022/11/22 06:48:29;;;;;;;;;0.00;0.00;;;;;9.52;72.43;99044.81;4865753;29;45390;-66
2022/11/22 06:50:58;;;;;;;;;0.25;0.25;;;;;9.49;71.89;99039.66;4847118;29;47435;-66
2022/11/22 06:53:26;;;;;;;;;1.00;1.00;;;;;9.43;72.00;99025.75;4866896;29;45432;-66
2022/11/22 06:55:52;;;;;;;;;2.75;2.00;;;;;9.57;72.03;99046.31;4867091;29;45310;-66
2022/11/22 06:58:17;;;;;;;;;2.75;1.00;;;;;9.57;72.05;99046.31;4862998;29;45397;-66
2022/11/22 07:00:42;;;;;;;;;2.50;1.00;;;;;9.62;71.88;99057.56;4866428;29;53000;-66
2022/11/22 07:03:07;;;;;;;;;0.50;0.00;;;;;9.61;71.99;99052.31;4866768;29;48585;-66
2022/11/22 07:05:33;;;;;;;;;0.75;0.00;;;;;9.59;72.40;99052.41;4866597;29;50592;-66
2022/11/22 07:07:58;;;;;;;;;1.75;0.75;;;;;9.64;72.43;99068.16;4863227;29;45765;-66
2022/11/22 07:10:23;;;;;;;;;0.00;0.00;;;;;9.64;72.34;99054.81;4849705;29;47191;-66
2022/11/22 07:12:49;;;;;;;;;1.75;0.25;;;;;9.68;71.96;99076.81;4865321;29;45973;-66
2022/11/22 07:15:14;;;;;;;;;1.00;0.00;;;;;9.65;72.37;99067.19;4866432;29;52802;-66
2022/11/22 07:17:40;;;;;;;;;0.50;0.00;;;;;9.60;71.58;99067.44;4865112;29;57135;-65
2022/11/22 07:20:05;;;;;;;;;0.00;0.00;;;;;9.69;72.56;99076.75;4849892;29;47869;-68
2022/11/22 07:22:31;;;;;;;;;0.75;0.00;;;;;9.73;71.63;99080.09;4864513;29;45564;-66
2022/11/22 07:24:56;;;;;;;;;0.75;0.00;;;;;9.69;72.22;99073.19;4865436;29;45456;-67
2022/11/22 07:27:21;;;;;;;;;1.25;0.00;;;;;9.77;72.10;99079.84;4866335;29;45565;-68
2022/11/22 07:29:47;;;;;;;;;0.00;0.00;;;;;9.78;71.60;99078.03;4865959;29;46797;-68
2022/11/22 07:32:12;;;;;;;;;0.00;0.00;;;;;9.77;71.46;99087.84;4865359;29;45293;-68
2022/11/22 07:34:37;;;;;;;;;0.00;0.00;;;;;9.76;71.71;99099.44;4856382;29;45384;-67
2022/11/22 07:37:03;;;;;;;;;0.00;0.00;;;;;9.76;72.08;99096.75;4862350;29;53582;-67
2022/11/22 07:39:28;;;;;;;;;1.00;0.00;;;;;9.73;71.64;99096.06;4866700;29;52388;-67
2022/11/22 07:41:53;;;;;;;;;0.75;0.00;;;;;9.77;71.82;99105.59;4866489;29;45398;-67
2022/11/22 07:44:18;;;;;;;;;0.00;0.00;;;;;9.78;71.57;99116.19;4863334;29;45467;-68
2022/11/22 07:46:44;;;;;;;;;1.00;0.00;;;;;9.75;71.62;99095.03;4846450;29;45376;-68
2022/11/22 07:49:10;;;;;;;;;0.00;0.00;;;;;9.73;71.78;99112.91;4863189;29;45499;-68
2022/11/22 07:51:36;;;;;;;;;0.00;0.00;;;;;9.68;71.62;99098.13;4850629;29;45392;-69
2022/11/22 07:54:01;;;;;;;;;0.00;0.00;;;;;9.77;71.92;99102.94;4865204;29;45420;-68
2022/11/22 07:56:26;;;;;;;;;0.00;0.00;;;;;9.76;71.37;99099.44;4864403;29;45425;-68
2022/11/22 07:58:52;;;;;;;;;1.75;1.00;;;;;9.75;71.69;99099.50;4865784;29;46524;-67
2022/11/22 08:01:18;;;;;;;;;0.50;0.00;;;;;9.78;71.61;99116.19;4849412;29;45419;-67
2022/11/22 08:03:43;;;;;;;;;1.00;0.00;;;;;9.77;71.66;99101.16;4866299;29;45339;-67
2022/11/22 08:06:11;;;;;;;;;0.00;0.00;;;;;9.77;71.72;99097.63;4849646;29;45649;-66
2022/11/22 08:08:37;;;;;;;;;0.00;0.00;;;;;9.78;72.34;99105.53;4863888;29;46943;-67
2022/11/22 08:11:04;;;;;;;;;1.00;1.00;;;;;9.77;72.09;99106.50;4865871;29;45512;-67
2022/11/22 08:13:30;;;;;;;;;1.00;1.00;;;;;9.77;72.66;99110.94;4850708;29;45813;-66
2022/11/22 08:16:08;;;;;;;;;0.00;0.00;;;;;9.81;72.23;99112.50;4863134;29;45525;-67
2022/11/22 08:18:35;;;;;;;;;0.75;0.00;;;;;9.81;72.22;99118.69;4856988;29;46171;-67
2022/11/22 08:21:04;;;;;;;;;0.50;0.50;;;;;9.82;72.99;99114.22;4859678;29;45671;-66
2022/11/22 08:23:29;;;;;;;;;0.75;0.00;;;;;9.82;73.12;99112.44;4863831;29;45431;-66
2022/11/22 08:25:57;;;;;;;;;0.25;0.25;;;;;9.79;72.60;99109.06;4847222;29;45329;-66
2022/11/22 08:28:22;;;;;;;;;0.75;0.75;;;;;9.77;72.81;99117.16;4865004;29;46596;-66
2022/11/22 08:30:47;;;;;;;;;0.00;0.00;;;;;9.85;73.20;99127.38;4865815;29;45500;-66
2022/11/22 08:33:13;;;;;;;;;0.25;0.25;;;;;9.88;73.25;99131.69;4865458;29;45414;-66
2022/11/22 08:35:38;;;;;;;;;2.00;1.00;;;;;9.84;73.02;99115.00;4865270;29;47091;-67
2022/11/22 08:38:03;;;;;;;;;0.75;0.00;;;;;9.84;72.66;99123.00;4864803;29;50614;-66
2022/11/22 08:40:29;;;;;;;;;2.50;1.00;;;;;9.87;73.09;99127.28;4865309;29;51031;-66
2022/11/22 08:42:55;;;;;;;;;0.50;0.00;;;;;9.83;72.97;99130.13;4865450;29;45268;-67
2022/11/22 08:45:20;;;;;;;;;0.00;0.00;;;;;9.83;72.65;99130.13;4863688;29;45546;-66
2022/11/22 08:47:47;;;;;;;;;2.75;1.00;;;;;9.90;72.77;99135.97;4865150;29;45496;-66
2022/11/22 08:50:13;;;;;;;;;0.00;0.00;;;;;9.90;72.94;99129.78;4864598;29;45472;-66
2022/11/22 08:52:38;;;;;;;;;1.75;0.00;;;;;9.91;72.90;99145.69;4848043;29;45488;-67
2022/11/22 08:55:04;;;;;;;;;1.00;1.00;;;;;9.91;72.95;99143.03;4865209;29;46797;-66
2022/11/22 08:57:29;;;;;;;;;1.00;1.00;;;;;9.91;73.29;99137.69;4864751;29;45609;-66
2022/11/22 08:59:55;;;;;;;;;3.00;0.50;;;;;9.93;73.43;99143.81;4864452;29;45515;-67
2022/11/22 09:02:20;;;;;;;;;0.25;0.25;;;;;9.94;73.06;99141.97;4863859;29;45320;-66
2022/11/22 09:04:45;;;;;;;;;2.00;0.50;;;;;9.93;73.36;99130.47;4864800;29;48509;-66
2022/11/22 09:07:11;;;;;;;;;1.00;0.75;;;;;9.92;73.75;99149.22;4864678;29;45320;-67
2022/11/22 09:09:36;;;;;;;;;0.00;0.00;;;;;9.93;73.32;99151.78;4853587;29;45370;-67
2022/11/22 09:12:01;;;;;;;;;1.25;0.25;;;;;10.00;73.40;99142.50;4863855;29;45454;-66
2022/11/22 09:14:27;;;;;;;;;0.50;0.50;;;;;9.99;73.69;99134.63;4863186;29;45347;-66
2022/11/22 09:16:52;;;;;;;;;0.75;0.75;;;;;9.98;73.36;99160.41;4863682;29;46205;-66
2022/11/22 09:19:17;;;;;;;;;2.50;1.00;;;;;10.01;72.81;99148.72;4864008;29;45501;-67
2022/11/22 09:21:43;;;;;;;;;2.00;1.00;;;;;9.98;72.92;99140.88;4861194;29;46647;-66
2022/11/22 09:24:08;;;;;;;;;1.00;1.00;;;;;10.06;73.48;99167.13;4858223;29;45476;-67
2022/11/22 09:26:33;;;;;;;;;1.00;1.00;;;;;9.97;72.80;99137.38;4863435;29;45323;-66
2022/11/22 09:28:59;;;;;;;;;1.50;1.50;;;;;10.09;73.05;99166.94;4844095;29;45722;-66
2022/11/22 09:31:24;;;;;;;;;0.50;0.50;;;;;10.11;72.90;99162.41;4864796;29;45318;-67
2022/11/22 09:33:50;;;;;;;;;2.00;2.00;;;;;10.13;73.26;99164.03;4864546;29;45471;-66
2022/11/22 09:36:18;;;;;;;;;3.50;0.75;;;;;10.11;73.08;99171.25;4863858;29;45342;-67
2022/11/22 09:38:44;;;;;;;;;1.00;1.00;;;;;10.16;73.42;99169.19;4861106;29;45696;-67
2022/11/22 09:41:15;;;;;;;;;0.00;0.00;;;;;10.22;73.19;99167.13;4863617;29;45352;-66
2022/11/22 09:44:05;;;;;;;;;1.00;0.75;;;;;10.15;73.06;99159.44;4864569;29;45401;-66
2022/11/22 09:46:31;;;;;;;;;1.00;0.75;;;;;10.25;72.94;99172.28;4863561;29;45510;-67
2022/11/22 09:49:02;;;;;;;;;0.00;0.00;;;;;10.29;72.40;99173.81;4864104;29;45523;-66
2022/11/22 09:51:38;;;;;;;;;4.00;1.75;;;;;10.31;72.85;99164.81;4864445;29;45377;-66
2022/11/22 09:54:09;;;;;;;;;2.50;1.00;;;;;10.34;72.15;99166.44;4864315;29;45559;-66
2022/11/22 09:56:36;;;;;;;;;0.75;0.75;;;;;10.38;72.29;99173.34;4863880;29;45480;-66
2022/11/22 09:59:12;;;;;;;;;0.00;0.00;;;;;10.41;72.25;99162.50;4863257;29;45809;-66
2022/11/22 10:01:43;;;;;;;;;1.75;0.25;;;;;10.43;72.42;99163.28;4863675;29;45512;-67
2022/11/22 10:04:15;;;;;;;;;4.00;1.75;;;;;10.46;72.36;99165.78;4858034;29;45410;-67
2022/11/22 10:06:48;;;;;;;;;0.75;0.75;;;;;10.49;72.79;99173.59;4864123;29;45387;-66
2022/11/22 10:09:37;;;;;;;;;0.00;0.00;;;;;10.53;72.51;99175.13;4862945;29;45662;-66
2022/11/22 10:12:36;;;;;;;;;1.00;1.00;;;;;10.57;73.12;99182.03;4862769;29;45456;-66
2022/11/22 10:15:22;;;;;;;;;1.00;1.00;;;;;10.62;72.52;99187.09;4838449;29;46169;-66
2022/11/22 10:17:50;;;;;;;;;1.75;1.00;;;;;10.64;72.21;99192.34;4855780;29;46231;-66
2022/11/22 10:20:20;;;;;;;;;0.50;0.00;;;;;10.67;72.11;99190.34;4861666;29;45495;-66
2022/11/22 10:22:47;;;;;;;;;1.25;1.00;;;;;10.68;72.25;99176.06;4861237;29;45463;-66
2022/11/22 10:25:46;;;;;;;;;3.00;1.00;;;;;10.73;71.77;99184.66;4862502;29;45440;-67
2022/11/22 10:28:31;;;;;;;;;3.00;1.00;;;;;10.76;71.46;99186.31;4846093;29;45973;-66
2022/11/22 10:31:06;;;;;;;;;2.00;1.00;;;;;10.81;71.72;99189.56;4863262;29;45411;-67
2022/11/22 10:33:50;;;;;;;;;0.25;0.25;;;;;10.82;71.64;99175.25;4862685;29;45434;-66
2022/11/22 10:36:23;;;;;;;;;2.00;1.25;;;;;10.88;71.56;99196.25;4860516;29;45496;-66
2022/11/22 10:39:09;;;;;;;;;1.75;1.25;;;;;10.90;71.42;99198.84;4862775;29;45432;-66
2022/11/22 10:41:49;;;;;;;;;2.25;1.00;;;;;10.93;71.04;99180.81;4853073;29;45421;-66
2022/11/22 10:44:40;;;;;;;;;4.00;1.00;;;;;10.98;71.02;99204.59;4862005;29;45338;-67
2022/11/22 10:47:12;;;;;;;;;1.00;1.00;;;;;11.03;70.96;99197.16;4816644;29;46586;-67
2022/11/22 10:49:48;;;;;;;;;0.25;0.25;;;;;11.00;70.44;99193.81;4865529;29;45559;-66
2022/11/22 10:52:37;;;;;;;;;3.75;1.00;;;;;11.04;70.55;99190.91;4862502;29;45604;-67
2022/11/22 10:55:41;;;;;;;;;1.25;1.00;;;;;11.08;70.25;99191.56;4862322;29;45497;-67
2022/11/22 10:58:12;;;;;;;;;1.25;1.00;;;;;11.10;69.82;99203.00;4833862;29;45478;-66
2022/11/22 11:00:42;;;;;;;;;0.00;0.00;;;;;11.11;70.01;99200.25;4866445;29;46203;-66
2022/11/22 11:03:23;;;;;;;;;2.75;1.00;;;;;11.17;69.86;99211.53;4848429;29;45369;-67
2022/11/22 11:05:57;;;;;;;;;1.25;0.00;;;;;11.21;69.50;99213.94;4866035;29;45387;-66
2022/11/22 11:08:31;;;;;;;;;1.00;0.50;;;;;11.24;70.08;99203.06;4864417;29;45473;-67
2022/11/22 11:10:57;;;;;;;;;2.00;1.00;;;;;11.27;69.33;99210.00;4866460;29;45765;-66
2022/11/22 11:13:28;;;;;;;;;0.00;0.00;;;;;11.27;69.60;99204.66;4866068;29;45416;-67
2022/11/22 11:15:57;;;;;;;;;2.00;0.00;;;;;11.31;69.39;99206.22;4866647;29;45324;-66
2022/11/22 11:18:28;;;;;;;;;1.00;1.00;;;;;11.35;69.31;99221.09;4866034;29;45524;-66
2022/11/22 11:20:53;;;;;;;;;1.00;1.00;;;;;11.17;68.98;99182.13;4861981;29;46278;-66
2022/11/22 11:23:19;;;;;;;;;2.75;0.00;;;;;11.42;69.07;99218.94;4865895;29;45475;-67
2022/11/22 11:25:46;;;;;;;;;1.00;1.00;;;;;11.43;68.86;99202.81;4866488;29;45433;-67
2022/11/22 11:28:19;;;;;;;;;1.00;1.00;;;;;11.47;68.96;99211.50;4866140;29;45621;-67
2022/11/22 11:30:46;;;;;;;;;2.00;2.00;;;;;11.48;68.78;99200.72;4865025;29;46264;-66
2022/11/22 11:33:25;;;;;;;;;2.00;1.00;;;;;11.50;68.15;99211.31;4863887;29;45844;-66
2022/11/22 11:35:54;;;;;;;;;2.00;0.25;;;;;11.55;67.97;99213.72;4865122;29;45458;-66
2022/11/22 11:38:39;;;;;;;;;1.75;0.00;;;;;11.52;68.48;99203.19;4865811;29;45326;-67
2022/11/22 11:41:23;;;;;;;;;4.75;0.75;;;;;11.59;67.97;99216.06;4862390;29;45561;-66
2022/11/22 11:43:50;;;;;;;;;0.00;0.00;;;;;11.55;67.92;99203.88;4858795;29;45289;-66
2022/11/22 11:46:20;;;;;;;;;3.50;0.75;;;;;11.59;68.00;99194.69;4865823;29;45582;-67
2022/11/22 11:48:47;;;;;;;;;1.75;0.00;;;;;11.62;67.49;99196.34;4855265;29;45602;-66
2022/11/22 11:51:17;;;;;;;;;1.75;1.00;;;;;11.66;67.76;99203.19;4846021;29;47586;-66
2022/11/22 11:53:54;;;;;;;;;3.25;1.00;;;;;11.67;67.60;99202.25;4865674;29;45667;-67
2022/11/22 11:56:47;;;;;;;;;2.00;0.75;;;;;11.60;67.67;99187.56;4866069;29;45419;-67